Time;durP1;ratioP1;P1;durP2;ratioP2;P2;SDS_P1;SDS_P2;PMS_P1;PMS_P2;Temp;Humidity;BMP_temperature;BMP_pressure;BME280_temperature;BME280_humidity;BME280_pressure;Samples;Min_cycle;Max_cycle;Signal;HPM_P1;HPM_P2
2022/01/12 00:00:09;;;;;;;17.77;10.70;;;1.90;99.90;;;;;;5134500;27;20607;-60
2022/01/12 00:02:36;;;;;;;21.55;12.15;;;1.90;99.90;;;;;;5134128;27;20203;-59
2022/01/12 00:05:04;;;;;;;18.00;12.18;;;1.90;99.90;;;;;;5134276;27;20219;-60
2022/01/12 00:07:31;;;;;;;17.15;12.27;;;1.90;99.90;;;;;;5134354;27;20207;-60
2022/01/12 00:09:58;;;;;;;15.85;11.50;;;1.90;99.90;;;;;;5134182;27;20198;-60
2022/01/12 00:12:26;;;;;;;18.38;11.85;;;2.00;99.90;;;;;;5134135;28;20252;-60
2022/01/12 00:14:53;;;;;;;20.75;11.38;;;2.00;99.90;;;;;;5133925;28;20713;-61
2022/01/12 00:17:21;;;;;;;15.55;10.43;;;2.00;99.90;;;;;;5134910;28;20246;-60
2022/01/12 00:19:48;;;;;;;14.45;9.50;;;2.10;99.90;;;;;;5134025;28;20201;-60
2022/01/12 00:22:15;;;;;;;15.70;11.27;;;2.10;99.90;;;;;;5134206;28;20206;-59
2022/01/12 00:25:05;;;;;;;16.75;11.27;;;2.10;99.90;;;;;;5136155;27;20218;-60
2022/01/12 00:33:15;;;;;;;21.20;10.40;;;2.10;99.90;;;;;;5081838;28;20199;-60
2022/01/12 00:35:44;;;;;;;15.30;10.77;;;2.20;99.90;;;;;;5128855;27;20215;-60
2022/01/12 00:38:12;;;;;;;16.88;10.85;;;2.20;99.90;;;;;;5144602;27;20205;-59
2022/01/12 00:40:40;;;;;;;18.13;10.40;;;2.20;99.90;;;;;;5148658;27;20203;-59
2022/01/12 00:43:08;;;;;;;13.25;9.18;;;2.20;99.90;;;;;;5149159;27;20198;-59
2022/01/12 00:45:37;;;;;;;15.35;8.50;;;2.20;99.90;;;;;;5151614;27;20231;-60
2022/01/12 00:48:05;;;;;;;10.93;8.05;;;2.20;99.90;;;;;;5152666;27;20262;-60
2022/01/12 00:50:33;;;;;;;16.42;8.27;;;2.30;99.90;;;;;;5148267;27;20675;-59
2022/01/12 00:53:01;;;;;;;18.42;10.43;;;2.30;99.90;;;;;;5149142;27;20195;-60
2022/01/12 00:55:28;;;;;;;14.05;9.40;;;2.30;99.90;;;;;;5149141;27;20229;-59
2022/01/12 00:57:55;;;;;;;11.80;8.85;;;2.30;99.90;;;;;;5147157;27;20562;-60
2022/01/12 01:00:23;;;;;;;15.95;8.65;;;2.30;99.90;;;;;;5148526;27;20244;-60
2022/01/12 01:02:50;;;;;;;11.45;8.25;;;2.30;99.90;;;;;;5148332;27;20195;-59
2022/01/12 01:05:20;;;;;;;14.15;9.82;;;2.30;99.90;;;;;;5146147;27;20215;-59
2022/01/12 01:07:49;;;;;;;14.80;8.52;;;2.30;99.90;;;;;;5145540;27;20199;-60
2022/01/12 01:10:25;;;;;;;13.15;8.65;;;2.30;99.90;;;;;;5144551;27;20210;-59
2022/01/12 01:12:53;;;;;;;13.95;10.13;;;2.30;99.90;;;;;;5139475;27;20208;-60
2022/01/12 01:15:28;;;;;;;14.82;9.60;;;2.30;99.90;;;;;;5138470;27;20230;-59
2022/01/12 01:26:10;;;;;;;16.88;8.98;;;2.40;99.90;;;;;;5138823;27;20222;-59
2022/01/12 01:28:37;;;;;;;14.50;9.13;;;2.40;99.90;;;;;;5138446;27;20199;-60
2022/01/12 01:31:04;;;;;;;14.02;8.13;;;2.40;99.90;;;;;;5142839;27;20608;-58
2022/01/12 01:33:33;;;;;;;10.82;7.90;;;2.40;99.90;;;;;;5139593;27;20226;-59
2022/01/12 01:36:00;;;;;;;11.18;8.48;;;2.50;99.90;;;;;;5137352;27;20223;-60
2022/01/12 01:38:28;;;;;;;14.25;8.48;;;2.50;99.90;;;;;;5137935;27;20198;-59
2022/01/12 01:40:55;;;;;;;11.15;8.75;;;2.50;99.90;;;;;;5137396;27;20206;-60
2022/01/12 01:43:37;;;;;;;12.13;8.15;;;2.60;99.90;;;;;;5137782;27;20199;-60
2022/01/12 01:54:20;;;;;;;11.05;8.32;;;2.70;99.90;;;;;;5138455;27;20346;-60
2022/01/12 01:56:47;;;;;;;10.27;8.45;;;2.70;99.90;;;;;;5137624;27;20231;-60
2022/01/12 01:59:14;;;;;;;12.90;8.38;;;2.70;99.90;;;;;;5137824;27;20202;-59
2022/01/12 02:01:41;;;;;;;12.73;7.93;;;2.70;99.90;;;;;;5138183;27;20199;-59
2022/01/12 02:04:08;;;;;;;19.45;7.50;;;2.70;99.90;;;;;;5137045;27;20199;-59
2022/01/12 02:06:35;;;;;;;12.70;8.45;;;2.70;99.90;;;;;;5137413;27;20241;-60
2022/01/12 02:09:02;;;;;;;12.40;8.52;;;2.70;99.90;;;;;;5137161;27;20557;-60
2022/01/12 02:11:31;;;;;;;10.27;8.00;;;2.70;99.90;;;;;;5138287;27;20199;-59
2022/01/12 02:13:58;;;;;;;12.70;7.72;;;2.70;99.90;;;;;;5137872;27;20670;-59
2022/01/12 02:16:31;;;;;;;11.43;7.47;;;2.80;99.90;;;;;;5137529;27;20276;-59
2022/01/12 02:19:15;;;;;;;11.98;7.65;;;2.80;99.90;;;;;;5139560;27;20195;-59
2022/01/12 02:35:48;;;;;;;11.77;7.75;;;2.80;99.90;;;;;;5138107;27;20225;-60
2022/01/12 02:41:03;;;;;;;13.70;7.80;;;2.80;99.90;;;;;;5141151;27;20592;-59
2022/01/12 02:50:34;;;;;;;11.65;8.48;;;2.80;99.90;;;;;;5141551;27;20203;-59
2022/01/12 02:54:41;;;;;;;10.43;7.80;;;2.80;99.90;;;;;;5135882;27;20229;-60
2022/01/12 02:57:08;;;;;;;11.77;7.07;;;2.80;99.90;;;;;;5135685;27;20268;-60
2022/01/12 02:59:35;;;;;;;10.27;7.30;;;2.80;99.90;;;;;;5135363;27;20702;-60
2022/01/12 03:02:19;;;;;;;8.63;6.72;;;2.80;99.90;;;;;;5135617;27;20238;-60
2022/01/12 03:05:00;;;;;;;12.77;7.18;;;2.90;99.90;;;;;;5135374;27;20225;-59
2022/01/12 03:07:35;;;;;;;11.60;7.47;;;2.90;99.90;;;;;;5135353;27;20653;-60
2022/01/12 03:10:04;;;;;;;12.48;6.85;;;2.90;99.90;;;;;;5143827;27;20193;-59
2022/01/12 03:12:31;;;;;;;12.68;7.13;;;2.90;99.90;;;;;;5148352;27;20213;-59
2022/01/12 03:14:58;;;;;;;9.50;6.47;;;2.90;99.90;;;;;;5145950;27;20227;-60
2022/01/12 03:17:25;;;;;;;11.23;6.55;;;2.90;99.90;;;;;;5144515;27;20207;-59
2022/01/12 03:19:52;;;;;;;10.73;6.78;;;2.90;99.90;;;;;;5135799;27;20230;-60
2022/01/12 03:22:19;;;;;;;9.98;7.18;;;2.90;99.90;;;;;;5135110;27;20198;-60
2022/01/12 03:24:46;;;;;;;9.57;6.65;;;3.00;99.90;;;;;;5134784;27;20222;-60
2022/01/12 03:27:16;;;;;;;10.68;6.90;;;3.00;99.90;;;;;;5134714;27;20199;-59
2022/01/12 03:29:49;;;;;;;11.55;7.47;;;3.00;99.90;;;;;;5134724;27;20199;-60
2022/01/12 03:32:20;;;;;;;7.82;6.47;;;3.10;99.90;;;;;;5135060;27;20191;-60
2022/01/12 03:34:54;;;;;;;10.90;6.85;;;3.10;99.90;;;;;;5134846;27;20253;-61
2022/01/12 03:37:40;;;;;;;9.15;7.20;;;3.10;99.90;;;;;;5134599;27;20197;-59
2022/01/12 03:40:09;;;;;;;13.23;7.38;;;3.10;99.90;;;;;;5134418;27;20205;-59
2022/01/12 03:42:38;;;;;;;8.02;7.20;;;3.10;99.90;;;;;;5134679;27;20214;-61
2022/01/12 03:45:06;;;;;;;7.43;5.05;;;3.10;99.90;;;;;;5148629;27;20226;-60
2022/01/12 03:47:33;;;;;;;6.85;5.45;;;3.20;99.90;;;;;;5146265;27;20195;-60
2022/01/12 03:50:00;;;;;;;8.30;6.05;;;3.20;99.90;;;;;;5135827;27;20210;-60
2022/01/12 03:52:27;;;;;;;10.55;6.90;;;3.20;99.90;;;;;;5134766;27;20615;-61
2022/01/12 03:54:54;;;;;;;8.25;6.25;;;3.30;99.90;;;;;;5134206;27;20257;-60
2022/01/12 03:57:21;;;;;;;9.93;7.00;;;3.30;99.90;;;;;;5135028;27;20199;-60
2022/01/12 03:59:50;;;;;;;8.93;5.55;;;3.30;99.90;;;;;;5133885;27;20298;-60
2022/01/12 04:02:17;;;;;;;7.13;5.35;;;3.40;99.90;;;;;;5134871;27;20199;-60
2022/01/12 04:05:07;;;;;;;7.47;5.50;;;3.40;99.90;;;;;;5133841;27;20223;-60
2022/01/12 04:09:09;;;;;;;7.13;4.75;;;3.60;99.90;;;;;;5091275;27;20607;-60
2022/01/12 04:11:36;;;;;;;6.45;5.05;;;3.60;99.90;;;;;;5090753;28;20199;-59
2022/01/12 04:14:04;;;;;;;7.55;5.40;;;3.60;99.90;;;;;;5090698;28;20200;-60
2022/01/12 04:16:31;;;;;;;6.70;4.90;;;3.70;99.90;;;;;;5091036;28;20611;-60
2022/01/12 04:18:59;;;;;;;6.60;5.18;;;3.80;99.90;;;;;;5090601;28;20192;-60
2022/01/12 04:21:28;;;;;;;5.82;4.95;;;3.80;99.90;;;;;;5082366;22;20233;-54
2022/01/12 04:23:55;;;;;;;6.57;4.93;;;3.90;99.90;;;;;;5051963;28;20198;-54
2022/01/12 04:26:25;;;;;;;10.63;6.30;;;3.90;99.90;;;;;;5050140;28;20212;-55
2022/01/12 04:28:53;;;;;;;7.15;4.63;;;4.00;99.90;;;;;;5050346;28;20225;-55
2022/01/12 04:31:21;;;;;;;10.35;5.25;;;4.00;99.90;;;;;;5049904;28;20222;-55
2022/01/12 04:33:48;;;;;;;8.50;5.15;;;4.00;99.90;;;;;;5049928;28;20686;-55
2022/01/12 04:36:17;;;;;;;10.45;5.60;;;4.00;99.90;;;;;;5051834;28;20216;-55
2022/01/12 04:38:45;;;;;;;8.05;5.47;;;4.10;99.90;;;;;;5050251;28;20577;-55
2022/01/12 04:41:14;;;;;;;9.57;5.38;;;4.10;99.90;;;;;;5049899;28;20217;-55
2022/01/12 04:43:44;;;;;;;8.60;6.50;;;4.10;99.90;;;;;;5050294;28;20549;-56
2022/01/12 04:49:26;;;;;;;6.45;4.90;;;4.20;99.90;;;;;;5036460;28;20233;-56
2022/01/12 04:51:54;;;;;;;6.93;4.78;;;4.20;99.90;;;;;;5049931;28;20186;-56
2022/01/12 04:54:21;;;;;;;6.70;4.80;;;4.30;99.90;;;;;;5049798;28;20208;-56
2022/01/12 04:56:48;;;;;;;7.22;4.95;;;4.30;99.90;;;;;;5049797;28;20606;-56
2022/01/12 04:59:16;;;;;;;7.10;5.00;;;4.30;99.90;;;;;;5049366;28;20194;-55
2022/01/12 05:01:51;;;;;;;6.63;4.25;;;4.30;99.90;;;;;;5049536;28;20225;-56
2022/01/12 05:07:24;;;;;;;6.13;4.32;;;4.40;99.90;;;;;;5049351;28;20248;-56
2022/01/12 05:12:53;;;;;;;10.38;5.78;;;4.40;99.90;;;;;;5036421;28;20283;-55
2022/01/12 05:15:34;;;;;;;9.52;5.03;;;4.40;99.90;;;;;;5049654;28;20193;-56
2022/01/12 05:18:01;;;;;;;6.30;4.47;;;4.40;99.90;;;;;;5049225;28;20182;-55
2022/01/12 05:20:29;;;;;;;8.43;4.78;;;4.40;99.90;;;;;;5036504;28;20230;-55
2022/01/12 05:22:56;;;;;;;7.25;5.07;;;4.40;99.90;;;;;;5036701;28;20210;-55
2022/01/12 05:25:23;;;;;;;7.43;5.00;;;4.40;99.90;;;;;;5035719;28;20221;-55
2022/01/12 05:27:52;;;;;;;8.90;6.00;;;4.40;99.90;;;;;;5035814;28;20226;-55
2022/01/12 05:30:19;;;;;;;9.48;6.38;;;4.30;99.90;;;;;;5036300;28;20252;-55
2022/01/12 05:32:47;;;;;;;10.23;5.55;;;4.30;99.90;;;;;;5035529;28;20206;-56
2022/01/12 05:35:17;;;;;;;10.25;7.70;;;4.20;99.90;;;;;;5035771;28;20229;-55
2022/01/12 05:37:45;;;;;;;14.32;7.95;;;4.20;99.90;;;;;;5035359;28;20666;-55
2022/01/12 05:40:14;;;;;;;9.60;7.70;;;4.10;99.90;;;;;;5036567;28;20269;-55
2022/01/12 05:42:43;;;;;;;9.90;8.73;;;4.00;99.90;;;;;;5035551;28;20207;-55
2022/01/12 05:45:11;;;;;;;9.02;7.75;;;4.00;99.90;;;;;;5035292;28;20263;-55
2022/01/12 05:49:34;;;;;;;10.85;8.25;;;4.00;99.90;;;;;;5035561;28;20249;-55
2022/01/12 05:50:29;;;;;;;14.32;9.85;;;3.90;99.90;;;;;;5034966;28;20309;-55
2022/01/12 05:52:57;;;;;;;13.18;8.57;;;3.90;99.90;;;;;;5035547;28;20288;-55
2022/01/12 05:55:24;;;;;;;10.75;7.55;;;3.90;99.90;;;;;;5034576;28;20214;-55
2022/01/12 05:57:51;;;;;;;13.25;8.02;;;3.90;99.90;;;;;;5035396;28;20565;-55
2022/01/12 06:00:21;;;;;;;9.15;8.05;;;3.90;99.90;;;;;;5034861;28;20225;-54
2022/01/12 06:02:48;;;;;;;15.10;9.60;;;3.80;99.90;;;;;;5034918;28;20199;-54
2022/01/12 06:05:16;;;;;;;12.95;9.10;;;3.80;99.90;;;;;;5034839;28;20208;-54
2022/01/12 06:07:44;;;;;;;11.32;8.40;;;3.80;99.90;;;;;;5035067;28;20219;-55
2022/01/12 06:10:12;;;;;;;12.18;8.60;;;3.80;99.90;;;;;;5035122;28;20593;-54
2022/01/12 06:12:40;;;;;;;13.48;10.50;;;3.80;99.90;;;;;;5034968;28;20210;-54
2022/01/12 06:15:08;;;;;;;15.20;10.52;;;3.80;99.90;;;;;;5035146;28;20638;-54
2022/01/12 06:17:36;;;;;;;16.27;11.18;;;3.80;99.90;;;;;;5035017;28;20206;-55
2022/01/12 06:20:04;;;;;;;16.10;10.90;;;3.80;99.90;;;;;;5034497;28;20249;-54
2022/01/12 06:22:31;;;;;;;16.00;11.00;;;3.80;99.90;;;;;;5035026;28;20230;-54
2022/01/12 06:25:00;;;;;;;15.20;10.70;;;3.80;99.90;;;;;;5034466;28;20209;-56
2022/01/12 06:27:29;;;;;;;16.48;11.63;;;3.80;99.90;;;;;;5034397;28;20748;-56
2022/01/12 06:31:10;;;;;;;17.83;12.75;;;3.80;99.90;;;;;;5034375;28;20224;-54
2022/01/12 06:32:53;;;;;;;15.63;10.27;;;3.80;99.90;;;;;;5034097;28;20365;-55
2022/01/12 06:35:20;;;;;;;12.32;10.00;;;3.80;99.90;;;;;;5034585;28;20210;-55
2022/01/12 06:37:48;;;;;;;15.63;10.90;;;3.80;99.90;;;;;;5034815;28;20203;-56
2022/01/12 06:40:18;;;;;;;15.05;11.40;;;3.70;99.90;;;;;;5034648;28;20222;-55
2022/01/12 06:42:45;;;;;;;13.18;11.38;;;3.70;99.90;;;;;;5035808;28;20202;-55
2022/01/12 06:45:12;;;;;;;16.30;11.98;;;3.70;99.90;;;;;;5034402;28;20222;-55
2022/01/12 06:47:40;;;;;;;17.38;11.88;;;3.80;99.90;;;;;;5034029;28;20210;-55
2022/01/12 06:50:08;;;;;;;15.23;12.05;;;3.80;99.90;;;;;;5034063;28;20226;-54
2022/01/12 06:52:35;;;;;;;18.05;12.88;;;3.80;99.90;;;;;;5034066;28;20237;-54
2022/01/12 06:55:03;;;;;;;21.77;12.85;;;3.80;99.90;;;;;;5034300;28;20202;-54
2022/01/12 06:57:31;;;;;;;16.08;12.48;;;3.80;99.90;;;;;;5034244;28;20206;-54
2022/01/12 06:59:59;;;;;;;14.77;12.27;;;3.80;99.90;;;;;;5034156;28;20223;-54
2022/01/12 07:02:26;;;;;;;21.33;13.30;;;3.90;99.90;;;;;;5033736;28;20213;-56
2022/01/12 07:04:53;;;;;;;18.25;11.23;;;3.90;99.90;;;;;;5033744;28;20229;-54
2022/01/12 07:07:22;;;;;;;13.73;11.35;;;3.90;99.90;;;;;;5033880;28;20215;-54
2022/01/12 07:09:50;;;;;;;22.08;13.93;;;3.90;99.90;;;;;;5033528;28;20698;-55
2022/01/12 07:12:17;;;;;;;17.55;11.75;;;3.90;99.90;;;;;;5033858;28;20206;-55
2022/01/12 07:14:45;;;;;;;15.57;13.55;;;3.90;99.90;;;;;;5033846;28;20202;-56
2022/01/12 07:17:14;;;;;;;16.80;12.02;;;3.90;99.90;;;;;;5033704;28;20213;-55
2022/01/12 07:19:41;;;;;;;16.30;12.43;;;3.90;99.90;;;;;;5033605;28;20556;-54
2022/01/12 07:22:08;;;;;;;18.55;13.98;;;3.90;99.90;;;;;;5033563;28;20190;-53
2022/01/12 07:24:35;;;;;;;19.58;13.77;;;3.90;99.90;;;;;;5033953;28;20213;-54
2022/01/12 07:27:02;;;;;;;16.02;12.27;;;3.90;99.90;;;;;;5033005;28;20697;-54
2022/01/12 07:29:29;;;;;;;21.38;15.57;;;3.90;99.90;;;;;;5033364;28;20706;-53
2022/01/12 07:31:58;;;;;;;21.77;14.95;;;3.90;99.90;;;;;;5033208;28;20202;-54
2022/01/12 07:34:25;;;;;;;18.83;14.27;;;3.90;99.90;;;;;;5033479;28;20202;-54
2022/01/12 07:36:52;;;;;;;19.05;13.90;;;3.90;99.90;;;;;;5033210;28;20557;-53
2022/01/12 07:39:19;;;;;;;26.08;16.23;;;3.90;99.90;;;;;;5033432;28;20206;-54
2022/01/12 07:41:46;;;;;;;26.63;15.70;;;3.90;99.90;;;;;;5032740;28;20246;-54
2022/01/12 07:44:13;;;;;;;28.98;17.65;;;3.90;99.90;;;;;;5032981;28;20202;-54
2022/01/12 07:46:40;;;;;;;21.67;17.00;;;3.90;99.90;;;;;;5032953;28;20210;-55
2022/01/12 07:49:09;;;;;;;21.70;17.63;;;3.90;99.90;;;;;;5032753;28;20226;-54
2022/01/12 07:51:36;;;;;;;22.48;16.75;;;3.90;99.90;;;;;;5032769;28;20253;-55
2022/01/12 07:54:03;;;;;;;22.48;17.92;;;3.90;99.90;;;;;;5032931;28;20206;-54
2022/01/12 07:56:30;;;;;;;24.20;17.40;;;3.90;99.90;;;;;;5035525;28;20699;-55
2022/01/12 07:58:57;;;;;;;28.17;17.73;;;3.90;99.90;;;;;;5033070;28;20198;-54
2022/01/12 08:01:24;;;;;;;22.55;16.48;;;3.90;99.90;;;;;;5033039;28;20276;-55
2022/01/12 08:03:51;;;;;;;24.00;18.60;;;3.90;99.90;;;;;;5033023;28;20214;-55
2022/01/12 08:06:20;;;;;;;22.67;16.83;;;3.90;99.90;;;;;;5032888;28;20206;-53
2022/01/12 08:08:47;;;;;;;25.02;18.13;;;3.80;99.90;;;;;;5032849;28;20253;-54
2022/01/12 08:11:14;;;;;;;25.92;18.65;;;3.80;99.90;;;;;;5032769;28;20678;-54
2022/01/12 08:13:42;;;;;;;28.17;21.00;;;3.80;99.90;;;;;;5033221;28;20202;-53
2022/01/12 08:16:09;;;;;;;30.75;20.83;;;3.80;99.90;;;;;;5032498;28;20206;-54
2022/01/12 08:18:37;;;;;;;28.52;20.65;;;3.80;99.90;;;;;;5032718;28;20198;-54
2022/01/12 08:21:06;;;;;;;31.88;21.58;;;3.80;99.90;;;;;;5031581;28;20226;-54
2022/01/12 08:23:34;;;;;;;28.70;21.67;;;3.80;99.90;;;;;;5033037;28;20205;-54
2022/01/12 08:26:01;;;;;;;35.60;24.20;;;3.70;99.90;;;;;;5033150;28;20256;-54
2022/01/12 08:28:28;;;;;;;37.83;23.95;;;3.70;99.90;;;;;;5033021;28;20226;-55
2022/01/12 08:30:55;;;;;;;31.02;23.80;;;3.70;99.90;;;;;;5033222;28;20222;-54
2022/01/12 08:33:22;;;;;;;33.88;22.80;;;3.60;99.90;;;;;;5032999;28;20202;-54
2022/01/12 08:35:50;;;;;;;39.97;24.42;;;3.60;99.90;;;;;;5032746;28;20202;-55
2022/01/12 08:38:17;;;;;;;48.35;26.48;;;3.60;99.90;;;;;;5033257;28;20289;-55
2022/01/12 08:40:45;;;;;;;50.92;25.40;;;3.60;99.90;;;;;;5033001;28;20222;-57
2022/01/12 08:43:13;;;;;;;40.10;25.40;;;3.50;99.90;;;;;;5033230;28;20198;-55
2022/01/12 08:45:40;;;;;;;35.80;25.45;;;3.50;99.90;;;;;;5032933;28;20230;-56
2022/01/12 08:48:07;;;;;;;39.15;25.58;;;3.50;99.90;;;;;;5032981;28;20217;-55
2022/01/12 08:50:34;;;;;;;44.42;30.30;;;3.50;99.90;;;;;;5031988;28;20437;-56
2022/01/12 08:53:01;;;;;;;42.70;27.67;;;3.60;99.90;;;;;;5032686;28;20217;-55
2022/01/12 08:55:28;;;;;;;42.45;27.73;;;3.60;99.90;;;;;;5035849;28;20575;-55
2022/01/12 08:57:58;;;;;;;38.33;26.10;;;3.60;99.90;;;;;;5036800;28;20210;-56
2022/01/12 09:00:26;;;;;;;35.10;24.35;;;3.60;99.90;;;;;;5036933;28;20704;-57
2022/01/12 09:02:53;;;;;;;42.47;26.50;;;3.70;99.90;;;;;;5036523;28;20202;-56
2022/01/12 09:05:20;;;;;;;39.55;26.17;;;3.70;99.90;;;;;;5036147;28;20206;-56
2022/01/12 09:07:47;;;;;;;37.03;25.35;;;3.70;99.90;;;;;;5036368;28;20229;-57
2022/01/12 09:10:15;;;;;;;43.53;25.83;;;3.70;99.90;;;;;;5036315;28;20226;-56
2022/01/12 09:12:42;;;;;;;40.25;26.95;;;3.70;99.90;;;;;;5038854;28;20202;-55
2022/01/12 09:15:13;;;;;;;38.90;25.23;;;3.70;99.90;;;;;;5037480;28;20671;-55
2022/01/12 09:17:40;;;;;;;45.13;25.40;;;3.70;99.90;;;;;;5036969;28;20225;-56
2022/01/12 09:20:09;;;;;;;41.70;25.38;;;3.70;99.90;;;;;;5036468;28;20595;-56
2022/01/12 09:22:37;;;;;;;36.67;25.75;;;3.70;99.90;;;;;;5036452;28;20198;-56
2022/01/12 09:25:06;;;;;;;43.95;27.23;;;3.70;99.90;;;;;;5036744;28;20666;-56
2022/01/12 09:27:33;;;;;;;37.95;24.45;;;3.70;99.90;;;;;;5035843;28;20213;-56
2022/01/12 09:30:00;;;;;;;42.42;27.02;;;3.70;99.90;;;;;;5035881;28;20233;-56
2022/01/12 09:32:28;;;;;;;46.97;27.23;;;3.70;99.90;;;;;;5035553;28;20651;-56
2022/01/12 09:34:56;;;;;;;45.10;27.45;;;3.70;99.90;;;;;;5035596;28;20202;-56
2022/01/12 09:37:23;;;;;;;38.35;26.40;;;3.80;99.90;;;;;;5035637;28;20238;-56
2022/01/12 09:39:50;;;;;;;43.33;27.38;;;3.80;99.90;;;;;;5035619;28;20293;-56
2022/01/12 09:42:18;;;;;;;43.70;27.23;;;3.80;99.90;;;;;;5035692;28;20675;-56
2022/01/12 09:44:47;;;;;;;44.50;26.98;;;3.90;99.90;;;;;;5035714;28;20662;-57
2022/01/12 09:47:14;;;;;;;46.50;26.30;;;3.90;99.90;;;;;;5035640;28;20242;-56
2022/01/12 09:49:45;;;;;;;47.88;26.40;;;4.00;99.90;;;;;;5034992;28;20223;-56
2022/01/12 09:52:13;;;;;;;39.58;25.33;;;4.00;99.90;;;;;;5035598;28;20207;-56
2022/01/12 09:54:40;;;;;;;37.50;22.75;;;4.00;99.90;;;;;;5035638;28;20225;-56
2022/01/12 09:57:08;;;;;;;39.83;24.35;;;4.00;99.90;;;;;;5035415;28;20202;-54
2022/01/12 09:59:36;;;;;;;44.65;27.20;;;4.00;99.90;;;;;;5034992;28;20198;-55
2022/01/12 10:02:04;;;;;;;51.90;25.05;;;4.10;99.90;;;;;;5034676;28;20213;-56
2022/01/12 10:04:32;;;;;;;43.22;24.75;;;4.10;99.90;;;;;;5034824;28;20210;-55
2022/01/12 10:07:03;;;;;;;42.40;25.25;;;4.10;99.90;;;;;;5035031;28;20240;-56
2022/01/12 10:09:34;;;;;;;39.20;25.40;;;4.10;99.90;;;;;;5034928;28;20209;-57
2022/01/12 10:12:05;;;;;;;43.08;25.10;;;4.10;99.90;;;;;;5034593;28;20535;-56
2022/01/12 10:14:45;;;;;;;38.08;24.38;;;4.10;99.90;;;;;;5034946;28;20535;-56
2022/01/12 10:17:13;;;;;;;37.90;23.00;;;4.20;99.90;;;;;;5035074;28;20183;-56
2022/01/12 10:19:41;;;;;;;41.88;25.40;;;4.20;99.90;;;;;;5034999;28;20571;-58
2022/01/12 10:22:14;;;;;;;41.55;26.75;;;4.30;99.90;;;;;;5034797;28;20199;-57
2022/01/12 10:24:44;;;;;;;42.72;26.50;;;4.40;99.90;;;;;;5034844;28;20195;-56
2022/01/12 10:27:14;;;;;;;38.42;25.33;;;4.40;99.90;;;;;;5035270;28;20210;-57
2022/01/12 10:29:41;;;;;;;46.47;25.98;;;4.50;99.90;;;;;;5034768;28;20256;-57
2022/01/12 10:32:09;;;;;;;37.65;23.73;;;4.60;99.90;;;;;;5034159;28;20675;-57
2022/01/12 10:34:41;;;;;;;35.92;24.77;;;4.70;99.90;;;;;;5034496;28;20248;-56
2022/01/12 10:37:11;;;;;;;34.88;22.25;;;4.70;99.90;;;;;;5034056;28;20717;-56
2022/01/12 10:39:40;;;;;;;33.53;21.67;;;4.80;99.90;;;;;;5034324;28;20204;-57
2022/01/12 10:42:09;;;;;;;38.15;24.45;;;4.80;99.90;;;;;;5033957;28;20481;-56
2022/01/12 10:44:39;;;;;;;31.73;24.25;;;4.80;99.90;;;;;;5034077;28;20202;-55
2022/01/12 10:47:12;;;;;;;33.08;20.88;;;4.80;99.90;;;;;;5034543;28;20198;-54
2022/01/12 10:49:41;;;;;;;42.70;24.30;;;4.80;99.90;;;;;;5034558;28;20608;-56
2022/01/12 10:52:12;;;;;;;36.00;22.80;;;4.80;99.90;;;;;;5034595;28;20206;-55
2022/01/12 10:54:51;;;;;;;38.30;23.67;;;4.80;99.90;;;;;;5034243;28;20206;-56
2022/01/12 10:57:22;;;;;;;34.67;22.98;;;4.80;99.90;;;;;;5034096;28;20210;-55
2022/01/12 11:00:18;;;;;;;38.33;22.80;;;4.80;99.90;;;;;;5034917;28;20327;-55
2022/01/12 11:02:47;;;;;;;40.40;23.27;;;4.90;99.90;;;;;;5035357;28;20246;-54
2022/01/12 11:05:14;;;;;;;35.00;23.55;;;4.90;99.90;;;;;;5034136;28;20240;-55
2022/01/12 11:07:43;;;;;;;32.35;22.30;;;5.00;99.90;;;;;;5033977;28;20210;-55
2022/01/12 11:10:12;;;;;;;35.40;21.10;;;5.00;99.90;;;;;;5033668;28;20596;-55
2022/01/12 11:12:40;;;;;;;34.95;21.58;;;5.00;99.90;;;;;;5033951;28;20206;-55
2022/01/12 11:15:09;;;;;;;31.75;21.92;;;5.00;99.90;;;;;;5033460;28;20210;-55
2022/01/12 11:17:38;;;;;;;32.33;22.42;;;5.00;99.90;;;;;;5033195;28;20252;-56
2022/01/12 11:20:12;;;;;;;29.58;20.60;;;5.00;99.90;;;;;;5033695;28;20230;-55
2022/01/12 11:22:56;;;;;;;35.58;23.30;;;5.00;99.90;;;;;;5035726;28;20285;-54
2022/01/12 11:25:25;;;;;;;32.58;22.73;;;5.10;99.90;;;;;;5038030;28;20182;-55
2022/01/12 11:28:09;;;;;;;31.48;21.35;;;5.20;99.90;;;;;;5036438;28;20218;-55
2022/01/12 11:30:38;;;;;;;35.10;21.52;;;5.30;99.90;;;;;;5035694;28;20222;-55
2022/01/12 11:33:07;;;;;;;39.25;23.20;;;5.30;99.90;;;;;;5035642;28;20199;-55
2022/01/12 11:35:39;;;;;;;34.45;22.92;;;5.30;99.90;;;;;;5034734;28;20206;-55
2022/01/12 11:38:08;;;;;;;30.30;21.42;;;5.20;99.90;;;;;;5035018;28;20187;-55
2022/01/12 11:40:41;;;;;;;34.60;23.33;;;5.20;99.90;;;;;;5034412;28;20218;-55
2022/01/12 11:43:20;;;;;;;38.17;23.08;;;5.20;99.90;;;;;;5034037;28;20191;-55
2022/01/12 11:46:01;;;;;;;38.15;24.80;;;5.20;99.90;;;;;;5034214;28;20224;-55
2022/01/12 11:48:33;;;;;;;33.25;21.55;;;5.20;99.90;;;;;;5033874;28;20183;-56
2022/01/12 11:51:00;;;;;;;36.08;22.73;;;5.20;99.90;;;;;;5033602;28;20230;-56
2022/01/12 11:53:31;;;;;;;37.17;23.67;;;5.10;99.90;;;;;;5034584;28;20199;-56
2022/01/12 11:56:12;;;;;;;34.70;22.60;;;5.10;99.90;;;;;;5034837;28;20651;-57
2022/01/12 11:58:51;;;;;;;32.92;23.20;;;5.10;99.90;;;;;;5034643;28;20229;-55
2022/01/12 12:01:18;;;;;;;34.30;24.30;;;5.10;99.90;;;;;;5034096;28;20235;-55
2022/01/12 12:03:57;;;;;;;30.48;22.65;;;5.10;99.90;;;;;;5033833;28;20202;-54
2022/01/12 12:06:24;;;;;;;36.40;22.00;;;5.10;99.90;;;;;;5034103;28;20206;-56
2022/01/12 12:09:02;;;;;;;30.65;23.75;;;5.10;99.90;;;;;;5033164;28;20205;-55
2022/01/12 12:11:30;;;;;;;35.30;21.50;;;5.20;99.90;;;;;;5033139;28;20229;-55
2022/01/12 12:14:01;;;;;;;30.73;22.02;;;5.20;99.90;;;;;;5032804;28;20217;-55
2022/01/12 12:16:29;;;;;;;39.00;23.75;;;5.20;99.90;;;;;;5033333;28;20568;-55
2022/01/12 12:18:57;;;;;;;33.55;23.30;;;5.20;99.90;;;;;;5033101;28;20198;-55
2022/01/12 12:21:25;;;;;;;31.15;19.50;;;5.20;99.90;;;;;;5032743;28;20249;-56
2022/01/12 12:23:53;;;;;;;33.95;20.42;;;5.20;99.90;;;;;;5032908;28;20238;-56
2022/01/12 12:26:23;;;;;;;38.92;24.35;;;5.10;99.90;;;;;;5032682;28;20233;-56
2022/01/12 12:28:55;;;;;;;38.60;21.85;;;5.10;99.90;;;;;;5033925;28;20193;-55
2022/01/12 12:31:24;;;;;;;35.05;20.42;;;5.00;99.90;;;;;;5036491;28;20225;-55
2022/01/12 12:34:02;;;;;;;35.28;21.77;;;5.10;99.90;;;;;;5036885;28;20209;-56
2022/01/12 12:36:30;;;;;;;26.52;18.77;;;5.10;99.90;;;;;;5036485;28;20202;-56
2022/01/12 12:39:10;;;;;;;26.83;15.57;;;5.20;99.90;;;;;;5036499;28;20209;-56
2022/01/12 12:41:43;;;;;;;29.02;18.15;;;5.30;99.90;;;;;;5036758;28;20214;-56
2022/01/12 12:44:21;;;;;;;30.67;20.60;;;5.40;99.90;;;;;;5036752;28;20193;-56
2022/01/12 12:46:50;;;;;;;26.70;17.95;;;5.60;99.90;;;;;;5036492;28;20205;-55
2022/01/12 12:49:17;;;;;;;24.67;16.30;;;5.60;99.90;;;;;;5036422;28;20202;-55
2022/01/12 12:51:45;;;;;;;34.05;18.90;;;5.70;99.90;;;;;;5035856;28;20230;-55
2022/01/12 12:54:13;;;;;;;28.73;19.05;;;5.80;99.90;;;;;;5037053;28;20203;-55
2022/01/12 12:56:48;;;;;;;29.30;19.60;;;5.70;99.90;;;;;;5037021;28;20670;-55
2022/01/12 12:59:15;;;;;;;27.77;18.77;;;5.80;99.90;;;;;;5036899;28;20187;-56
2022/01/12 13:01:43;;;;;;;29.13;19.33;;;5.80;99.90;;;;;;5036522;28;20621;-56
2022/01/12 13:04:10;;;;;;;26.02;19.40;;;5.70;99.90;;;;;;5036601;28;20559;-57
2022/01/12 13:06:38;;;;;;;31.70;17.65;;;5.70;99.90;;;;;;5036584;28;20206;-55
2022/01/12 13:09:07;;;;;;;31.42;20.00;;;5.70;99.90;;;;;;5036922;28;20206;-55
2022/01/12 13:11:36;;;;;;;35.30;19.23;;;5.70;99.90;;;;;;5036707;28;20226;-55
2022/01/12 13:14:06;;;;;;;29.48;18.27;;;5.70;99.90;;;;;;5037157;28;20210;-56
2022/01/12 13:16:34;;;;;;;24.90;19.38;;;5.60;99.90;;;;;;5036099;28;20207;-56
2022/01/12 13:19:07;;;;;;;28.00;18.25;;;5.60;99.90;;;;;;5035869;28;20237;-56
2022/01/12 13:21:35;;;;;;;31.08;20.35;;;5.60;99.90;;;;;;5036499;28;20222;-56
2022/01/12 13:24:02;;;;;;;28.00;21.10;;;5.60;99.90;;;;;;5035874;28;20215;-56
2022/01/12 13:26:36;;;;;;;31.98;19.55;;;5.60;99.90;;;;;;5036495;28;20213;-55
2022/01/12 13:29:09;;;;;;;29.10;20.17;;;5.70;99.90;;;;;;5035871;28;20563;-56
2022/01/12 13:31:36;;;;;;;30.55;20.73;;;5.70;99.90;;;;;;5035652;28;20273;-56
2022/01/12 13:34:05;;;;;;;31.25;21.40;;;5.70;99.90;;;;;;5036439;28;20217;-56
2022/01/12 13:36:34;;;;;;;32.25;19.67;;;5.70;99.90;;;;;;5036495;28;20214;-58
2022/01/12 13:39:06;;;;;;;26.45;19.80;;;5.70;99.90;;;;;;5036074;28;20690;-56
2022/01/12 13:41:35;;;;;;;27.15;20.73;;;5.60;99.90;;;;;;5035292;28;20702;-57
2022/01/12 13:44:08;;;;;;;32.35;20.67;;;5.60;99.90;;;;;;5035656;28;20289;-57
2022/01/12 13:46:38;;;;;;;32.05;20.10;;;5.60;99.90;;;;;;5035408;28;20187;-56
2022/01/12 13:49:22;;;;;;;40.88;22.08;;;5.60;99.90;;;;;;5035967;28;20298;-55